createdAt,value
2023-11-10T00:02:11.526Z,92.55
2023-11-10T00:07:18.218Z,92.57
2023-11-10T00:12:21.326Z,93.00
2023-11-10T00:17:24.398Z,91.71
2023-11-10T00:22:32.700Z,91.04
2023-11-10T00:27:35.939Z,91.11
2023-11-10T00:32:40.469Z,91.53
2023-11-10T00:37:45.130Z,92.67
2023-11-10T00:42:48.257Z,91.99
2023-11-10T00:47:51.356Z,91.68
2023-11-10T00:52:55.873Z,92.64
2023-11-10T00:57:59.532Z,93.11
2023-11-10T01:03:05.119Z,93.82
2023-11-10T01:08:09.691Z,93.26
2023-11-10T01:13:15.284Z,93.35
2023-11-10T01:18:19.000Z,94.18
2023-11-10T01:23:23.683Z,94.04
2023-11-10T01:28:27.166Z,94.86
2023-11-10T01:33:30.381Z,93.98
2023-11-10T01:38:36.663Z,94.88
2023-11-10T01:43:39.755Z,94.31
2023-11-10T01:48:42.990Z,95.33
2023-11-10T01:53:47.572Z,95.09
2023-11-10T01:58:50.648Z,96.41
2023-11-10T02:03:54.335Z,97.47
2023-11-10T02:08:58.885Z,98.13
2023-11-10T02:14:05.022Z,98.03
2023-11-10T02:19:16.250Z,98.68
2023-11-10T02:24:22.844Z,98.64
2023-11-10T02:29:27.427Z,98.32
2023-11-10T02:34:30.614Z,97.60
2023-11-10T02:39:33.721Z,98.26
2023-11-10T02:44:38.713Z,98.74
2023-11-10T02:49:42.478Z,98.72
2023-11-10T02:54:45.693Z,98.72
2023-11-10T02:59:50.351Z,98.09
2023-11-10T03:04:53.521Z,97.89
2023-11-10T03:09:56.616Z,98.31
2023-11-10T03:15:01.093Z,98.20
2023-11-10T03:20:04.330Z,98.47
2023-11-10T03:25:08.182Z,98.77
2023-11-10T03:30:13.636Z,100.00
2023-11-10T03:35:16.806Z,100.00
2023-11-10T03:40:21.643Z,100.00
2023-11-10T03:45:26.220Z,100.00
2023-11-10T03:50:29.384Z,100.00
2023-11-10T03:55:33.121Z,100.00
2023-11-10T04:00:46.093Z,100.00
2023-11-10T04:05:52.448Z,100.00
2023-11-10T04:10:57.252Z,100.00
2023-11-10T04:16:01.921Z,99.75
2023-11-10T04:21:05.101Z,99.14
2023-11-10T04:26:08.712Z,99.30
2023-11-10T04:31:15.163Z,100.00
2023-11-10T04:36:19.637Z,99.54
2023-11-10T04:41:23.623Z,100.00
2023-11-10T04:46:28.164Z,98.82
2023-11-10T04:51:32.522Z,97.34
2023-11-10T04:56:45.136Z,97.58
2023-11-10T05:01:50.469Z,96.60
2023-11-10T05:06:54.088Z,96.67
2023-11-10T05:11:58.464Z,93.92
2023-11-10T05:17:02.961Z,89.55
2023-11-10T05:22:09.134Z,90.58
2023-11-10T05:27:13.688Z,87.84
2023-11-10T05:32:18.174Z,89.51
2023-11-10T05:37:22.177Z,91.60
2023-11-10T05:42:25.451Z,90.08
2023-11-10T05:47:29.994Z,86.98
2023-11-10T05:52:33.125Z,87.52
2023-11-10T05:57:37.416Z,87.38
2023-11-10T06:02:43.462Z,83.77
2023-11-10T06:07:48.785Z,84.95
2023-11-10T06:12:52.747Z,89.20
2023-11-10T06:17:57.857Z,91.24
2023-11-10T06:23:01.076Z,89.76
2023-11-10T06:28:04.365Z,92.49
2023-11-10T06:33:08.889Z,94.05
2023-11-10T06:38:12.476Z,90.83
2023-11-10T06:43:15.553Z,90.05
2023-11-10T06:48:20.181Z,89.33
2023-11-10T06:53:23.293Z,90.90
2023-11-10T06:58:26.405Z,88.37
2023-11-10T07:03:31.928Z,89.08
2023-11-10T07:08:36.054Z,87.13
2023-11-10T07:13:39.118Z,89.00
2023-11-10T07:18:43.656Z,87.19
2023-11-10T07:23:46.826Z,86.42
2023-11-10T07:28:50.134Z,86.08
2023-11-10T07:33:54.790Z,84.52
2023-11-10T07:38:57.890Z,84.02
2023-11-10T07:44:01.021Z,82.56
2023-11-10T07:49:06.081Z,80.84
2023-11-10T07:54:09.247Z,78.74
2023-11-10T07:59:12.347Z,79.85
2023-11-10T08:04:17.128Z,77.71
2023-11-10T08:09:22.274Z,77.93
2023-11-10T08:14:26.959Z,75.26
2023-11-10T08:19:31.429Z,79.17
2023-11-10T08:24:34.780Z,78.28
2023-11-10T08:29:37.875Z,76.59
2023-11-10T08:34:42.428Z,75.89
2023-11-10T08:39:45.751Z,72.80
2023-11-10T08:44:49.840Z,71.85
2023-11-10T08:49:57.316Z,68.53
2023-11-10T08:55:01.100Z,69.02
2023-11-10T09:00:04.740Z,69.29
2023-11-10T09:05:11.192Z,69.11
2023-11-10T09:10:14.340Z,69.68
2023-11-10T09:15:17.610Z,65.07
2023-11-10T09:20:22.441Z,66.67
2023-11-10T09:25:25.798Z,61.85
2023-11-10T09:30:29.071Z,63.06
2023-11-10T09:35:35.039Z,60.45
2023-11-10T09:40:38.318Z,59.51
2023-11-10T09:45:44.482Z,59.57
2023-11-10T09:50:51.424Z,57.27
2023-11-10T09:55:56.274Z,56.52
2023-11-10T10:00:59.803Z,58.04
2023-11-10T10:06:04.555Z,56.36
2023-11-10T10:11:08.031Z,57.20
2023-11-10T10:16:12.328Z,56.58
2023-11-10T10:21:17.114Z,56.45
2023-11-10T10:26:20.413Z,58.41
2023-11-10T10:31:23.594Z,57.98
2023-11-10T10:36:28.308Z,59.38
2023-11-10T10:41:33.282Z,60.73
2023-11-10T10:46:37.687Z,60.63
2023-11-10T10:51:42.358Z,61.28
2023-11-10T10:56:46.211Z,61.06
2023-11-10T11:01:50.975Z,61.31
2023-11-10T11:07:24.815Z,62.82
2023-11-10T11:12:52.106Z,63.18
2023-11-10T11:18:06.747Z,63.53
2023-11-10T11:23:14.957Z,62.05
2023-11-10T11:28:27.073Z,61.88
2023-11-10T11:33:30.244Z,58.95
2023-11-10T11:38:36.920Z,59.49
2023-11-10T11:43:50.469Z,59.24
2023-11-10T11:48:53.714Z,58.95
2023-11-10T11:53:58.161Z,57.19
2023-11-10T11:59:01.352Z,59.23
2023-11-10T12:04:04.954Z,60.00
2023-11-10T12:09:09.523Z,61.78
2023-11-10T12:14:13.518Z,63.32
2023-11-10T12:19:19.569Z,66.37
2023-11-10T12:24:27.657Z,68.39
2023-11-10T12:29:31.811Z,70.12
2023-11-10T12:34:38.239Z,69.53
2023-11-10T12:39:44.721Z,71.72
2023-11-10T12:44:56.445Z,69.38
2023-11-10T12:50:00.660Z,69.27
2023-11-10T12:55:05.636Z,69.46
2023-11-10T13:00:10.936Z,69.25
2023-11-10T13:05:15.587Z,67.61
2023-11-10T13:10:20.257Z,65.11
2023-11-10T13:15:23.417Z,67.34
2023-11-10T13:20:29.455Z,66.45
2023-11-10T13:25:34.705Z,66.70
2023-11-10T13:30:37.845Z,64.25
2023-11-10T13:35:41.280Z,60.96
2023-11-10T13:40:46.005Z,61.52
2023-11-10T13:45:49.195Z,62.61
2023-11-10T13:50:52.473Z,64.29
2023-11-10T13:55:56.986Z,64.52
2023-11-10T14:01:00.113Z,64.99
2023-11-10T14:06:09.283Z,62.78
2023-11-10T14:11:14.296Z,62.31
2023-11-10T14:16:17.527Z,62.03
2023-11-10T14:21:23.192Z,64.19
2023-11-10T14:26:27.841Z,64.58
2023-11-10T14:31:31.396Z,64.12
2023-11-10T14:36:34.754Z,64.95
2023-11-10T14:41:39.393Z,64.70
2023-11-10T14:46:42.772Z,66.06
2023-11-10T14:51:53.669Z,67.22
2023-11-10T14:56:58.139Z,67.55
2023-11-10T15:02:02.976Z,68.63
2023-11-10T15:07:06.462Z,69.93
2023-11-10T15:12:12.022Z,70.82
2023-11-10T15:17:15.096Z,70.60
2023-11-10T15:22:18.183Z,71.16
2023-11-10T15:27:23.124Z,71.12
2023-11-10T15:32:26.250Z,71.40
2023-11-10T15:37:32.421Z,71.35
2023-11-10T15:42:37.252Z,71.85
2023-11-10T15:47:40.461Z,72.49
2023-11-10T15:52:43.610Z,72.90
2023-11-10T15:57:49.874Z,72.63
2023-11-10T16:02:53.768Z,73.29
2023-11-10T16:07:57.064Z,73.88
2023-11-10T16:13:01.820Z,75.33
2023-11-10T16:18:05.067Z,77.87
2023-11-10T16:23:08.735Z,78.39
2023-11-10T16:28:15.073Z,74.35
2023-11-10T16:33:18.332Z,79.15
2023-11-10T16:38:21.617Z,80.18
2023-11-10T16:43:26.152Z,82.18
2023-11-10T16:48:29.241Z,82.57
2023-11-10T16:53:32.288Z,83.62
2023-11-10T16:58:36.886Z,85.63
2023-11-10T17:03:40.257Z,87.28
2023-11-10T17:08:44.469Z,86.90
2023-11-10T17:13:48.982Z,86.33
2023-11-10T17:18:52.387Z,86.73
2023-11-10T17:23:55.631Z,87.35
2023-11-10T17:29:01.450Z,86.00
2023-11-10T17:34:06.563Z,83.43
2023-11-10T17:39:10.376Z,82.20
2023-11-10T17:44:15.355Z,82.69
2023-11-10T17:49:18.448Z,82.43
2023-11-10T17:54:21.606Z,84.47
2023-11-10T17:59:26.649Z,87.59
2023-11-10T18:04:29.837Z,88.45
2023-11-10T18:09:33.113Z,88.64
2023-11-10T18:14:38.637Z,87.66
2023-11-10T18:19:42.937Z,88.21
2023-11-10T18:24:47.463Z,88.19
2023-11-10T18:29:52.520Z,88.60
2023-11-10T18:34:55.732Z,86.62
2023-11-10T18:39:59.087Z,86.08
2023-11-10T18:45:04.326Z,86.70
2023-11-10T18:50:09.445Z,87.34
2023-11-10T18:55:13.056Z,88.60
2023-11-10T19:00:18.591Z,89.30
2023-11-10T19:05:23.794Z,90.02
2023-11-10T19:10:28.134Z,90.30
2023-11-10T19:15:32.931Z,91.78
2023-11-10T19:20:37.032Z,91.95
2023-11-10T19:25:40.592Z,93.54
2023-11-10T19:30:45.233Z,93.21
2023-11-10T19:35:49.401Z,93.40
2023-11-10T19:40:52.850Z,93.21
2023-11-10T19:45:57.361Z,93.16
2023-11-10T19:51:01.080Z,93.20
2023-11-10T19:56:04.641Z,92.06
2023-11-10T20:01:09.362Z,91.54
2023-11-10T20:06:12.513Z,91.92
2023-11-10T20:11:19.896Z,92.90
2023-11-10T20:16:25.398Z,92.62
2023-11-10T20:21:28.774Z,91.79
2023-11-10T20:26:31.918Z,91.28
2023-11-10T20:31:36.510Z,91.08
2023-11-10T20:36:39.713Z,90.82
2023-11-10T20:41:43.371Z,91.17
2023-11-10T20:46:48.178Z,91.66
2023-11-10T20:51:51.266Z,91.18
2023-11-10T20:56:54.497Z,92.00
2023-11-10T21:01:59.012Z,92.46
2023-11-10T21:07:02.142Z,93.17
2023-11-10T21:12:06.778Z,93.64
2023-11-10T21:17:11.433Z,94.04
2023-11-10T21:22:14.551Z,95.70
2023-11-10T21:27:17.662Z,95.59
2023-11-10T21:32:22.523Z,96.93
2023-11-10T21:37:25.694Z,97.05
2023-11-10T21:42:28.841Z,97.80
2023-11-10T21:47:34.498Z,97.03
2023-11-10T21:52:37.627Z,97.20
2023-11-10T21:57:41.681Z,95.88
2023-11-10T22:02:46.297Z,93.56
2023-11-10T22:07:49.519Z,94.17
2023-11-10T22:12:53.785Z,94.13
2023-11-10T22:17:58.263Z,92.46
2023-11-10T22:23:01.792Z,92.45
2023-11-10T22:28:05.590Z,93.64
2023-11-10T22:33:10.183Z,92.44
2023-11-10T22:38:13.294Z,91.97
2023-11-10T22:43:16.803Z,92.15
2023-11-10T22:48:21.375Z,92.05
2023-11-10T22:53:24.571Z,91.03
2023-11-10T22:58:27.626Z,91.56
2023-11-10T23:03:32.316Z,91.75
2023-11-10T23:08:35.451Z,91.86
2023-11-10T23:13:42.199Z,90.82
2023-11-10T23:18:47.214Z,91.03
2023-11-10T23:23:50.657Z,91.72
2023-11-10T23:28:53.735Z,92.78
2023-11-10T23:33:58.237Z,89.27
2023-11-10T23:39:01.460Z,89.18
2023-11-10T23:44:04.723Z,89.79
2023-11-10T23:49:09.827Z,89.41
2023-11-10T23:54:13.122Z,90.03
2023-11-10T23:59:16.426Z,91.24
